sensor_id;sensor_type;location;lat;lon;timestamp;temperature;humidity
58983;DHT22;44771;49.982;8.560;2024-02-16T00:03:25;7.90;99.90
58983;DHT22;44771;49.982;8.560;2024-02-16T00:08:30;8.00;99.90
58983;DHT22;44771;49.982;8.560;2024-02-16T00:13:32;8.00;99.90
58983;DHT22;44771;49.982;8.560;2024-02-16T00:18:34;8.10;99.90
58983;DHT22;44771;49.982;8.560;2024-02-16T00:23:37;8.20;99.90
58983;DHT22;44771;49.982;8.560;2024-02-16T00:28:39;8.20;99.90
58983;DHT22;44771;49.982;8.560;2024-02-16T00:33:41;8.20;99.90
58983;DHT22;44771;49.982;8.560;2024-02-16T00:38:45;8.00;99.90
58983;DHT22;44771;49.982;8.560;2024-02-16T00:43:47;7.90;99.90
58983;DHT22;44771;49.982;8.560;2024-02-16T00:48:49;8.00;99.90
58983;DHT22;44771;49.982;8.560;2024-02-16T00:53:52;8.00;99.90
58983;DHT22;44771;49.982;8.560;2024-02-16T00:58:54;7.90;99.90
58983;DHT22;44771;49.982;8.560;2024-02-16T01:03:56;7.80;99.90
58983;DHT22;44771;49.982;8.560;2024-02-16T01:08:59;7.80;99.90
58983;DHT22;44771;49.982;8.560;2024-02-16T01:14:01;7.80;99.90
58983;DHT22;44771;49.982;8.560;2024-02-16T01:19:03;7.80;99.90
58983;DHT22;44771;49.982;8.560;2024-02-16T01:24:06;7.70;99.90
58983;DHT22;44771;49.982;8.560;2024-02-16T01:29:08;7.70;99.90
58983;DHT22;44771;49.982;8.560;2024-02-16T01:34:10;7.60;99.90
58983;DHT22;44771;49.982;8.560;2024-02-16T01:39:13;7.50;99.90
58983;DHT22;44771;49.982;8.560;2024-02-16T01:44:15;7.50;99.90
58983;DHT22;44771;49.982;8.560;2024-02-16T01:49:17;7.30;99.90
58983;DHT22;44771;49.982;8.560;2024-02-16T01:54:20;7.30;99.90
58983;DHT22;44771;49.982;8.560;2024-02-16T01:59:22;7.20;99.90
58983;DHT22;44771;49.982;8.560;2024-02-16T02:04:24;7.20;99.90
58983;DHT22;44771;49.982;8.560;2024-02-16T02:09:27;7.10;99.90
58983;DHT22;44771;49.982;8.560;2024-02-16T02:14:29;7.00;99.90
58983;DHT22;44771;49.982;8.560;2024-02-16T02:19:31;7.00;99.90
58983;DHT22;44771;49.982;8.560;2024-02-16T02:24:34;6.90;99.90
58983;DHT22;44771;49.982;8.560;2024-02-16T02:29:36;6.60;99.90
58983;DHT22;44771;49.982;8.560;2024-02-16T02:34:38;6.30;99.90
58983;DHT22;44771;49.982;8.560;2024-02-16T02:39:41;6.30;99.90
58983;DHT22;44771;49.982;8.560;2024-02-16T02:44:43;6.30;99.90
58983;DHT22;44771;49.982;8.560;2024-02-16T02:49:45;6.20;99.90
58983;DHT22;44771;49.982;8.560;2024-02-16T02:54:51;6.20;99.90
58983;DHT22;44771;49.982;8.560;2024-02-16T02:59:53;6.20;99.90
58983;DHT22;44771;49.982;8.560;2024-02-16T03:05:04;6.10;99.90
58983;DHT22;44771;49.982;8.560;2024-02-16T03:10:08;6.10;99.90
58983;DHT22;44771;49.982;8.560;2024-02-16T03:15:10;6.20;99.90
58983;DHT22;44771;49.982;8.560;2024-02-16T03:20:11;6.30;99.90
58983;DHT22;44771;49.982;8.560;2024-02-16T03:25:15;6.20;99.90
58983;DHT22;44771;49.982;8.560;2024-02-16T03:30:17;6.10;99.90
58983;DHT22;44771;49.982;8.560;2024-02-16T03:35:18;6.00;99.90
58983;DHT22;44771;49.982;8.560;2024-02-16T03:40:22;6.10;99.90
58983;DHT22;44771;49.982;8.560;2024-02-16T03:45:25;6.10;99.90
58983;DHT22;44771;49.982;8.560;2024-02-16T03:50:27;6.30;99.90
58983;DHT22;44771;49.982;8.560;2024-02-16T03:55:30;6.40;99.90
58983;DHT22;44771;49.982;8.560;2024-02-16T04:00:32;6.50;99.90
58983;DHT22;44771;49.982;8.560;2024-02-16T04:05:34;6.40;99.90
58983;DHT22;44771;49.982;8.560;2024-02-16T04:10:37;6.40;99.90
58983;DHT22;44771;49.982;8.560;2024-02-16T04:15:38;6.50;99.90
58983;DHT22;44771;49.982;8.560;2024-02-16T04:20:41;6.60;99.90
58983;DHT22;44771;49.982;8.560;2024-02-16T04:25:44;6.50;99.90
58983;DHT22;44771;49.982;8.560;2024-02-16T04:30:46;6.50;99.90
58983;DHT22;44771;49.982;8.560;2024-02-16T04:35:47;6.50;99.90
58983;DHT22;44771;49.982;8.560;2024-02-16T04:40:51;6.50;99.90
58983;DHT22;44771;49.982;8.560;2024-02-16T04:45:52;6.50;99.90
58983;DHT22;44771;49.982;8.560;2024-02-16T04:50:54;6.90;99.90
58983;DHT22;44771;49.982;8.560;2024-02-16T04:55:58;6.90;99.90
58983;DHT22;44771;49.982;8.560;2024-02-16T05:00:59;6.90;99.90
58983;DHT22;44771;49.982;8.560;2024-02-16T05:06:01;6.80;99.90
58983;DHT22;44771;49.982;8.560;2024-02-16T05:11:05;6.80;99.90
58983;DHT22;44771;49.982;8.560;2024-02-16T05:16:08;6.70;99.90
58983;DHT22;44771;49.982;8.560;2024-02-16T05:21:10;6.70;99.90
58983;DHT22;44771;49.982;8.560;2024-02-16T05:26:13;6.70;99.90
58983;DHT22;44771;49.982;8.560;2024-02-16T05:31:17;6.70;99.90
58983;DHT22;44771;49.982;8.560;2024-02-16T05:36:19;6.70;99.90
58983;DHT22;44771;49.982;8.560;2024-02-16T05:41:23;6.80;99.90
58983;DHT22;44771;49.982;8.560;2024-02-16T05:46:24;6.70;99.90
58983;DHT22;44771;49.982;8.560;2024-02-16T05:51:26;6.60;99.90
58983;DHT22;44771;49.982;8.560;2024-02-16T05:56:29;6.70;99.90
58983;DHT22;44771;49.982;8.560;2024-02-16T06:01:31;6.70;99.90
58983;DHT22;44771;49.982;8.560;2024-02-16T06:06:35;6.70;99.90
58983;DHT22;44771;49.982;8.560;2024-02-16T06:11:39;6.60;99.90
58983;DHT22;44771;49.982;8.560;2024-02-16T06:16:40;6.50;99.90
58983;DHT22;44771;49.982;8.560;2024-02-16T06:21:42;6.50;99.90
58983;DHT22;44771;49.982;8.560;2024-02-16T06:26:45;6.60;99.90
58983;DHT22;44771;49.982;8.560;2024-02-16T06:31:47;6.50;99.90
58983;DHT22;44771;49.982;8.560;2024-02-16T06:36:49;6.30;99.90
58983;DHT22;44771;49.982;8.560;2024-02-16T06:41:52;6.20;99.90
58983;DHT22;44771;49.982;8.560;2024-02-16T06:46:54;6.10;99.90
58983;DHT22;44771;49.982;8.560;2024-02-16T06:51:56;6.10;99.90
58983;DHT22;44771;49.982;8.560;2024-02-16T06:56:59;6.10;99.90
58983;DHT22;44771;49.982;8.560;2024-02-16T07:02:01;6.30;99.90
58983;DHT22;44771;49.982;8.560;2024-02-16T07:07:03;6.30;99.90
58983;DHT22;44771;49.982;8.560;2024-02-16T07:12:07;6.30;99.90
58983;DHT22;44771;49.982;8.560;2024-02-16T07:17:09;6.40;99.90
58983;DHT22;44771;49.982;8.560;2024-02-16T07:22:11;6.50;99.90
58983;DHT22;44771;49.982;8.560;2024-02-16T07:27:17;6.70;99.90
58983;DHT22;44771;49.982;8.560;2024-02-16T07:32:19;6.90;99.90
58983;DHT22;44771;49.982;8.560;2024-02-16T07:37:20;7.00;99.90
58983;DHT22;44771;49.982;8.560;2024-02-16T07:42:23;7.30;99.90
58983;DHT22;44771;49.982;8.560;2024-02-16T07:47:25;7.40;99.90
58983;DHT22;44771;49.982;8.560;2024-02-16T07:52:27;7.60;99.90
58983;DHT22;44771;49.982;8.560;2024-02-16T07:57:30;7.80;99.90
58983;DHT22;44771;49.982;8.560;2024-02-16T08:02:32;8.10;99.90
58983;DHT22;44771;49.982;8.560;2024-02-16T08:07:34;8.70;99.90
58983;DHT22;44771;49.982;8.560;2024-02-16T08:12:37;9.10;99.90
58983;DHT22;44771;49.982;8.560;2024-02-16T08:17:40;9.40;99.90
58983;DHT22;44771;49.982;8.560;2024-02-16T08:22:42;9.60;99.90
58983;DHT22;44771;49.982;8.560;2024-02-16T08:27:45;9.90;99.90
58983;DHT22;44771;49.982;8.560;2024-02-16T08:32:47;10.20;99.90
58983;DHT22;44771;49.982;8.560;2024-02-16T08:37:49;10.50;99.90
58983;DHT22;44771;49.982;8.560;2024-02-16T08:42:52;10.60;99.90
58983;DHT22;44771;49.982;8.560;2024-02-16T08:47:54;10.70;99.90
58983;DHT22;44771;49.982;8.560;2024-02-16T08:52:55;10.80;99.90
58983;DHT22;44771;49.982;8.560;2024-02-16T08:57:59;10.90;99.90
58983;DHT22;44771;49.982;8.560;2024-02-16T09:03:00;10.90;99.90
58983;DHT22;44771;49.982;8.560;2024-02-16T09:08:04;10.90;99.90
58983;DHT22;44771;49.982;8.560;2024-02-16T09:13:07;10.80;99.90
58983;DHT22;44771;49.982;8.560;2024-02-16T09:18:09;10.90;99.90
58983;DHT22;44771;49.982;8.560;2024-02-16T09:23:11;11.00;99.90
58983;DHT22;44771;49.982;8.560;2024-02-16T09:28:14;11.40;99.90
58983;DHT22;44771;49.982;8.560;2024-02-16T09:33:27;11.60;99.90
58983;DHT22;44771;49.982;8.560;2024-02-16T09:38:29;11.80;99.90
58983;DHT22;44771;49.982;8.560;2024-02-16T09:43:32;12.00;99.90
58983;DHT22;44771;49.982;8.560;2024-02-16T09:48:34;12.10;99.90
58983;DHT22;44771;49.982;8.560;2024-02-16T09:53:36;12.30;99.90
58983;DHT22;44771;49.982;8.560;2024-02-16T09:58:39;12.30;99.90
58983;DHT22;44771;49.982;8.560;2024-02-16T10:03:43;12.40;99.90
58983;DHT22;44771;49.982;8.560;2024-02-16T10:08:49;12.50;99.90
58983;DHT22;44771;49.982;8.560;2024-02-16T10:13:56;12.50;99.90
58983;DHT22;44771;49.982;8.560;2024-02-16T10:19:04;12.50;99.90
58983;DHT22;44771;49.982;8.560;2024-02-16T10:24:08;12.50;99.90
58983;DHT22;44771;49.982;8.560;2024-02-16T10:29:11;12.50;99.90
58983;DHT22;44771;49.982;8.560;2024-02-16T10:34:14;12.50;99.90
58983;DHT22;44771;49.982;8.560;2024-02-16T10:39:16;12.60;99.90
58983;DHT22;44771;49.982;8.560;2024-02-16T10:44:20;12.60;99.90
58983;DHT22;44771;49.982;8.560;2024-02-16T10:54:29;12.80;99.90
58983;DHT22;44771;49.982;8.560;2024-02-16T10:59:41;13.00;99.90
58983;DHT22;44771;49.982;8.560;2024-02-16T11:04:46;13.10;99.90
58983;DHT22;44771;49.982;8.560;2024-02-16T11:09:50;13.10;99.90
58983;DHT22;44771;49.982;8.560;2024-02-16T11:14:56;13.10;99.90
58983;DHT22;44771;49.982;8.560;2024-02-16T11:20:00;13.20;99.90
58983;DHT22;44771;49.982;8.560;2024-02-16T11:25:05;13.60;99.90
58983;DHT22;44771;49.982;8.560;2024-02-16T11:30:11;14.20;99.90
58983;DHT22;44771;49.982;8.560;2024-02-16T11:35:13;14.50;99.90
58983;DHT22;44771;49.982;8.560;2024-02-16T11:40:15;14.50;99.90
58983;DHT22;44771;49.982;8.560;2024-02-16T11:45:18;14.50;99.90
58983;DHT22;44771;49.982;8.560;2024-02-16T11:50:20;14.60;99.90
58983;DHT22;44771;49.982;8.560;2024-02-16T11:55:22;14.50;99.90
58983;DHT22;44771;49.982;8.560;2024-02-16T12:00:25;14.50;99.90
58983;DHT22;44771;49.982;8.560;2024-02-16T12:05:27;14.60;99.90
58983;DHT22;44771;49.982;8.560;2024-02-16T12:10:29;14.60;99.90
58983;DHT22;44771;49.982;8.560;2024-02-16T12:15:32;14.50;99.90
58983;DHT22;44771;49.982;8.560;2024-02-16T12:20:34;14.60;99.90
58983;DHT22;44771;49.982;8.560;2024-02-16T12:25:36;14.70;99.90
58983;DHT22;44771;49.982;8.560;2024-02-16T12:30:39;14.80;99.90
58983;DHT22;44771;49.982;8.560;2024-02-16T12:35:41;15.10;99.90
58983;DHT22;44771;49.982;8.560;2024-02-16T12:40:43;15.30;99.90
58983;DHT22;44771;49.982;8.560;2024-02-16T12:45:46;15.50;99.90
58983;DHT22;44771;49.982;8.560;2024-02-16T12:50:48;15.60;99.90
58983;DHT22;44771;49.982;8.560;2024-02-16T12:55:50;15.80;99.80
58983;DHT22;44771;49.982;8.560;2024-02-16T13:00:53;16.00;99.60
58983;DHT22;44771;49.982;8.560;2024-02-16T13:05:55;16.60;99.00
58983;DHT22;44771;49.982;8.560;2024-02-16T13:10:58;16.80;97.40
58983;DHT22;44771;49.982;8.560;2024-02-16T13:16:01;16.30;97.70
58983;DHT22;44771;49.982;8.560;2024-02-16T13:21:03;16.10;98.80
58983;DHT22;44771;49.982;8.560;2024-02-16T13:26:05;16.10;98.80
58983;DHT22;44771;49.982;8.560;2024-02-16T13:31:08;16.00;99.30
58983;DHT22;44771;49.982;8.560;2024-02-16T13:36:10;15.90;99.40
58983;DHT22;44771;49.982;8.560;2024-02-16T13:41:12;15.90;99.00
58983;DHT22;44771;49.982;8.560;2024-02-16T13:46:18;15.90;99.20
58983;DHT22;44771;49.982;8.560;2024-02-16T13:51:20;16.00;99.10
58983;DHT22;44771;49.982;8.560;2024-02-16T13:56:22;16.10;99.20
58983;DHT22;44771;49.982;8.560;2024-02-16T14:01:25;16.00;99.10
58983;DHT22;44771;49.982;8.560;2024-02-16T14:06:27;16.10;99.10
58983;DHT22;44771;49.982;8.560;2024-02-16T14:11:29;16.10;98.80
58983;DHT22;44771;49.982;8.560;2024-02-16T14:16:32;15.90;99.40
58983;DHT22;44771;49.982;8.560;2024-02-16T14:21:34;15.90;99.10
58983;DHT22;44771;49.982;8.560;2024-02-16T14:26:37;15.70;99.60
58983;DHT22;44771;49.982;8.560;2024-02-16T14:31:40;15.60;99.70
58983;DHT22;44771;49.982;8.560;2024-02-16T14:36:42;15.50;99.90
58983;DHT22;44771;49.982;8.560;2024-02-16T14:41:44;15.40;99.90
58983;DHT22;44771;49.982;8.560;2024-02-16T14:46:47;15.40;99.90
58983;DHT22;44771;49.982;8.560;2024-02-16T14:51:52;15.40;99.90
58983;DHT22;44771;49.982;8.560;2024-02-16T14:56:53;15.40;99.90
58983;DHT22;44771;49.982;8.560;2024-02-16T15:01:58;15.30;99.90
58983;DHT22;44771;49.982;8.560;2024-02-16T15:06:59;15.10;99.90
58983;DHT22;44771;49.982;8.560;2024-02-16T15:12:01;15.00;99.90
58983;DHT22;44771;49.982;8.560;2024-02-16T15:17:05;14.90;99.90
58983;DHT22;44771;49.982;8.560;2024-02-16T15:22:07;14.90;99.90
58983;DHT22;44771;49.982;8.560;2024-02-16T15:27:09;15.00;99.90
58983;DHT22;44771;49.982;8.560;2024-02-16T15:32:12;14.70;99.90
58983;DHT22;44771;49.982;8.560;2024-02-16T15:37:14;14.60;99.90
58983;DHT22;44771;49.982;8.560;2024-02-16T15:42:18;14.50;99.90
58983;DHT22;44771;49.982;8.560;2024-02-16T15:47:21;14.30;99.90
58983;DHT22;44771;49.982;8.560;2024-02-16T15:52:23;14.30;99.90
58983;DHT22;44771;49.982;8.560;2024-02-16T15:57:25;14.20;99.90
58983;DHT22;44771;49.982;8.560;2024-02-16T16:02:28;14.00;99.90
58983;DHT22;44771;49.982;8.560;2024-02-16T16:07:30;14.10;99.90
58983;DHT22;44771;49.982;8.560;2024-02-16T16:12:32;14.00;99.90
58983;DHT22;44771;49.982;8.560;2024-02-16T16:17:35;13.90;99.90
58983;DHT22;44771;49.982;8.560;2024-02-16T16:22:38;13.80;99.90
58983;DHT22;44771;49.982;8.560;2024-02-16T16:27:43;13.60;99.90
58983;DHT22;44771;49.982;8.560;2024-02-16T16:32:48;13.50;99.90
58983;DHT22;44771;49.982;8.560;2024-02-16T16:37:49;13.40;99.90
58983;DHT22;44771;49.982;8.560;2024-02-16T16:42:51;13.40;99.90
58983;DHT22;44771;49.982;8.560;2024-02-16T16:47:55;13.40;99.90
58983;DHT22;44771;49.982;8.560;2024-02-16T16:52:58;13.30;99.90
58983;DHT22;44771;49.982;8.560;2024-02-16T16:58:00;13.20;99.90
58983;DHT22;44771;49.982;8.560;2024-02-16T17:03:04;13.10;99.90
58983;DHT22;44771;49.982;8.560;2024-02-16T17:08:06;13.10;99.90
58983;DHT22;44771;49.982;8.560;2024-02-16T17:13:08;13.00;99.90
58983;DHT22;44771;49.982;8.560;2024-02-16T17:18:11;12.90;99.90
58983;DHT22;44771;49.982;8.560;2024-02-16T17:23:15;12.80;99.90
58983;DHT22;44771;49.982;8.560;2024-02-16T17:28:17;12.60;99.90
58983;DHT22;44771;49.982;8.560;2024-02-16T17:33:20;12.40;99.90
58983;DHT22;44771;49.982;8.560;2024-02-16T17:38:22;12.20;99.90
58983;DHT22;44771;49.982;8.560;2024-02-16T17:43:24;12.30;99.90
58983;DHT22;44771;49.982;8.560;2024-02-16T17:48:27;12.30;99.90
58983;DHT22;44771;49.982;8.560;2024-02-16T17:53:30;12.30;99.90
58983;DHT22;44771;49.982;8.560;2024-02-16T17:58:31;12.20;99.90
58983;DHT22;44771;49.982;8.560;2024-02-16T18:03:34;12.10;99.90
58983;DHT22;44771;49.982;8.560;2024-02-16T18:08:36;12.10;99.90
58983;DHT22;44771;49.982;8.560;2024-02-16T18:13:38;12.00;99.90
58983;DHT22;44771;49.982;8.560;2024-02-16T18:18:41;12.00;99.90
58983;DHT22;44771;49.982;8.560;2024-02-16T18:23:43;11.90;99.90
58983;DHT22;44771;49.982;8.560;2024-02-16T18:28:45;11.90;99.90
58983;DHT22;44771;49.982;8.560;2024-02-16T18:33:48;11.80;99.90
58983;DHT22;44771;49.982;8.560;2024-02-16T18:38:50;11.80;99.90
58983;DHT22;44771;49.982;8.560;2024-02-16T18:43:52;11.80;99.90
58983;DHT22;44771;49.982;8.560;2024-02-16T18:48:55;11.70;99.90
58983;DHT22;44771;49.982;8.560;2024-02-16T18:53:57;11.70;99.90
58983;DHT22;44771;49.982;8.560;2024-02-16T18:59:00;11.80;99.90
58983;DHT22;44771;49.982;8.560;2024-02-16T19:04:03;11.70;99.90
58983;DHT22;44771;49.982;8.560;2024-02-16T19:09:05;11.70;99.90
58983;DHT22;44771;49.982;8.560;2024-02-16T19:14:07;11.70;99.90
58983;DHT22;44771;49.982;8.560;2024-02-16T19:19:10;11.70;99.90
58983;DHT22;44771;49.982;8.560;2024-02-16T19:24:12;11.70;99.90
58983;DHT22;44771;49.982;8.560;2024-02-16T19:29:18;11.70;99.90
58983;DHT22;44771;49.982;8.560;2024-02-16T19:34:21;11.60;99.90
58983;DHT22;44771;49.982;8.560;2024-02-16T19:39:23;11.70;99.90
58983;DHT22;44771;49.982;8.560;2024-02-16T19:44:25;11.70;99.90
58983;DHT22;44771;49.982;8.560;2024-02-16T19:49:28;11.70;99.90
58983;DHT22;44771;49.982;8.560;2024-02-16T19:54:30;11.70;99.90
58983;DHT22;44771;49.982;8.560;2024-02-16T19:59:32;11.70;99.90
58983;DHT22;44771;49.982;8.560;2024-02-16T20:04:35;11.60;99.90
58983;DHT22;44771;49.982;8.560;2024-02-16T20:09:37;11.60;99.90
58983;DHT22;44771;49.982;8.560;2024-02-16T20:14:40;11.60;99.90
58983;DHT22;44771;49.982;8.560;2024-02-16T20:19:43;11.60;99.90
58983;DHT22;44771;49.982;8.560;2024-02-16T20:24:45;11.60;99.90
58983;DHT22;44771;49.982;8.560;2024-02-16T20:29:47;11.50;99.90
58983;DHT22;44771;49.982;8.560;2024-02-16T20:34:50;11.60;99.90
58983;DHT22;44771;49.982;8.560;2024-02-16T20:39:52;11.50;99.90
58983;DHT22;44771;49.982;8.560;2024-02-16T20:44:54;11.50;99.90
58983;DHT22;44771;49.982;8.560;2024-02-16T20:49:57;11.60;99.90
58983;DHT22;44771;49.982;8.560;2024-02-16T20:54:59;11.50;99.90
58983;DHT22;44771;49.982;8.560;2024-02-16T21:00:01;11.50;99.90
58983;DHT22;44771;49.982;8.560;2024-02-16T21:05:05;11.50;99.90
58983;DHT22;44771;49.982;8.560;2024-02-16T21:10:08;11.50;99.90
58983;DHT22;44771;49.982;8.560;2024-02-16T21:15:12;11.40;99.90
58983;DHT22;44771;49.982;8.560;2024-02-16T21:20:16;11.40;99.90
58983;DHT22;44771;49.982;8.560;2024-02-16T21:25:18;11.30;99.90
58983;DHT22;44771;49.982;8.560;2024-02-16T21:30:19;11.40;99.90
58983;DHT22;44771;49.982;8.560;2024-02-16T21:35:23;11.20;99.90
58983;DHT22;44771;49.982;8.560;2024-02-16T21:40:25;11.30;99.90
58983;DHT22;44771;49.982;8.560;2024-02-16T21:45:26;11.30;99.90
58983;DHT22;44771;49.982;8.560;2024-02-16T21:50:30;11.40;99.90
58983;DHT22;44771;49.982;8.560;2024-02-16T21:55:32;11.30;99.90
58983;DHT22;44771;49.982;8.560;2024-02-16T22:00:34;11.20;99.90
58983;DHT22;44771;49.982;8.560;2024-02-16T22:05:41;11.00;99.90
58983;DHT22;44771;49.982;8.560;2024-02-16T22:10:43;11.00;99.90
58983;DHT22;44771;49.982;8.560;2024-02-16T22:15:44;11.10;99.90
58983;DHT22;44771;49.982;8.560;2024-02-16T22:20:48;11.00;99.90
58983;DHT22;44771;49.982;8.560;2024-02-16T22:25:50;10.90;99.90
58983;DHT22;44771;49.982;8.560;2024-02-16T22:30:52;10.80;99.90
58983;DHT22;44771;49.982;8.560;2024-02-16T22:35:55;10.80;99.90
58983;DHT22;44771;49.982;8.560;2024-02-16T22:40:57;10.70;99.90
58983;DHT22;44771;49.982;8.560;2024-02-16T22:45:59;10.70;99.90
58983;DHT22;44771;49.982;8.560;2024-02-16T22:51:03;10.70;99.90
58983;DHT22;44771;49.982;8.560;2024-02-16T22:56:05;10.60;99.90
58983;DHT22;44771;49.982;8.560;2024-02-16T23:01:07;10.60;99.90
58983;DHT22;44771;49.982;8.560;2024-02-16T23:06:10;10.60;99.90
58983;DHT22;44771;49.982;8.560;2024-02-16T23:11:12;10.50;99.90
58983;DHT22;44771;49.982;8.560;2024-02-16T23:16:14;10.60;99.90
58983;DHT22;44771;49.982;8.560;2024-02-16T23:21:17;10.50;99.90
58983;DHT22;44771;49.982;8.560;2024-02-16T23:26:19;10.60;99.90
58983;DHT22;44771;49.982;8.560;2024-02-16T23:31:21;10.50;99.90
58983;DHT22;44771;49.982;8.560;2024-02-16T23:36:24;10.40;99.90
58983;DHT22;44771;49.982;8.560;2024-02-16T23:41:26;10.40;99.90
58983;DHT22;44771;49.982;8.560;2024-02-16T23:46:33;10.40;99.90
58983;DHT22;44771;49.982;8.560;2024-02-16T23:51:36;10.40;99.90
58983;DHT22;44771;49.982;8.560;2024-02-16T23:56:38;10.20;99.90
